Dupage Airport
KDPA : now visible

Airfield :











YOU CAN JOIN US ON...

 
LOGIN :

Register | Disclaimer

   EN    FR    IT 

 









Legend :    VFR   Marginal VFR   IFR   Intensive IFR   Very Intensive IFR
Visi :
Ceiling :
>= 8 km
>= 3000ft
5 to 8 km
1000 to 3000 ft
1500m to 5 km
500 to 1000 ft
800 to 1500m
200 to 500 ft
< 800m
< 200 ft
Symbols :   Thunderstorms  Fog  Heavy snow  Heavy precipitations  Wind > 20 kt






- Airport Elevation : 759 ft


KDPA - Dupage

CURRENT METAR :
  • 211852Z 29013G25KT 10SM FEW070 BKN090 07/M08 A3006 RMK AO2 PK WND 29028/1842 SLP187 T00721083

EXPIRED METARs :
  • 211752Z 29018G24KT 10SM OVC075 08/M09 A3007 RMK AO2 PK WND 29028/1704 SLP188 T00781089 10089 20006 58007
  • 211652Z 26011G19KT 10SM SCT070 08/M06 A3008 RMK AO2 SLP192 T00831061

TAF KDPA
Valid from the 21 at 18:00 until the 22 at 18:00 UTC


211738Z 2118/2218 31014G24KT P6SM SCT045 BKN060
FM212000 32014G24KT P6SM -SNRA VCTS SCT035 BKN045CB
TEMPO 2120/2122 3SM -SNGS BKN015
FM212200 07009KT P6SM VCSH SCT035 BKN050
FM220200 24005KT P6SM SCT070
FM221300 27010G16KT P6SM FEW060
KZAU FIR / North America



MET'MAP, your aeronautical weather chart ! - Copyright ORBIFLY December 2007 - Disclaimer

ORBIFLY MET'MAP TEAM :

Programming & Development : Alexandra Zaïnal
Concept & original design : Baudouin d'Aumeries
Assistance for programming : Marc-Olivier Méhu
Technical & hardware support : Manuel Goepfert

Contact : metmap@orbifly.com




SOURCES & CREDITS :

   NOAA       Earth
Advisory